createdAt,value
2023-01-03T00:00:41.398Z,101403.47
2023-01-03T00:01:42.970Z,101394.03
2023-01-03T00:02:44.465Z,101409.41
2023-01-03T00:03:45.976Z,101410.78
2023-01-03T00:04:49.690Z,101414.91
2023-01-03T00:05:51.847Z,101413.22
2023-01-03T00:06:53.702Z,101409.84
2023-01-03T00:07:55.167Z,101409.72
2023-01-03T00:08:57.182Z,101411.91
2023-01-03T00:09:58.938Z,101423.34
2023-01-03T00:11:00.480Z,101419.34
2023-01-03T00:12:21.831Z,101414.28
2023-01-03T00:13:25.820Z,101420.47
2023-01-03T00:14:28.689Z,101421.00
2023-01-03T00:15:30.160Z,101420.34
2023-01-03T00:16:31.778Z,101425.50
2023-01-03T00:17:33.284Z,101419.66
2023-01-03T00:18:34.765Z,101421.34
2023-01-03T00:19:37.390Z,101424.84
2023-01-03T00:20:38.932Z,101430.44
2023-01-03T00:21:40.935Z,101435.06
2023-01-03T00:22:42.448Z,101428.97
2023-01-03T00:23:43.968Z,101431.88
2023-01-03T00:24:45.751Z,101436.47
2023-01-03T00:25:47.310Z,101435.13
2023-01-03T00:26:48.805Z,101416.78
2023-01-03T00:27:50.313Z,101425.75
2023-01-03T00:28:51.890Z,101419.66
2023-01-03T00:29:53.414Z,101425.84
2023-01-03T00:30:54.916Z,101426.44
2023-01-03T00:31:56.510Z,101426.97
2023-01-03T00:32:57.988Z,101426.34
2023-01-03T00:33:59.441Z,101430.84
2023-01-03T00:35:04.980Z,101421.53
2023-01-03T00:36:07.889Z,101432.94
2023-01-03T00:37:09.440Z,101417.88
2023-01-03T00:38:11.100Z,101421.03
2023-01-03T00:39:12.581Z,101425.50
2023-01-03T00:40:14.831Z,101421.03
2023-01-03T00:41:16.903Z,101420.16
2023-01-03T00:42:18.369Z,101419.78
2023-01-03T00:43:28.864Z,101419.78
2023-01-03T00:44:30.467Z,101413.59
2023-01-03T00:45:35.348Z,101412.66
2023-01-03T00:46:37.323Z,101421.44
2023-01-03T00:47:38.867Z,101416.09
2023-01-03T00:48:40.382Z,101420.56
2023-01-03T00:49:41.930Z,101419.00
2023-01-03T00:50:43.475Z,101422.41
2023-01-03T00:51:44.961Z,101423.00
2023-01-03T00:52:46.446Z,101414.09
2023-01-03T00:53:48.709Z,101411.91
2023-01-03T00:54:50.288Z,101415.31
2023-01-03T00:55:52.627Z,101418.34
2023-01-03T00:56:55.088Z,101427.00
2023-01-03T00:57:56.627Z,101427.25
2023-01-03T00:58:58.221Z,101412.41
2023-01-03T00:59:59.707Z,101427.00
2023-01-03T01:01:08.103Z,101423.00
2023-01-03T01:02:09.706Z,101424.22
2023-01-03T01:03:11.472Z,101425.94
2023-01-03T01:04:21.031Z,101428.75
2023-01-03T01:05:22.585Z,101434.13
2023-01-03T01:06:25.066Z,101430.25
2023-01-03T01:07:26.679Z,101427.91
2023-01-03T01:08:28.223Z,101433.28
2023-01-03T01:09:30.580Z,101430.09
2023-01-03T01:10:32.130Z,101424.75
2023-01-03T01:11:33.735Z,101434.34
2023-01-03T01:12:35.177Z,101429.75
2023-01-03T01:13:37.250Z,101429.84
2023-01-03T01:14:38.714Z,101430.44
2023-01-03T01:15:40.336Z,101433.22
2023-01-03T01:16:41.909Z,101441.75
2023-01-03T01:17:43.424Z,101443.44
2023-01-03T01:18:45.439Z,101438.09
2023-01-03T01:19:48.652Z,101445.03
2023-01-03T01:20:50.172Z,101439.44
2023-01-03T01:21:51.767Z,101447.34
2023-01-03T01:22:53.256Z,101442.00
2023-01-03T01:23:54.797Z,101443.94
2023-01-03T01:24:56.245Z,101451.59
2023-01-03T01:26:01.401Z,101445.66
2023-01-03T01:27:03.042Z,101438.59
2023-01-03T01:28:04.623Z,101451.09
2023-01-03T01:29:06.123Z,101450.50
2023-01-03T01:30:07.866Z,101449.91
2023-01-03T01:31:09.785Z,101452.78
2023-01-03T01:32:11.293Z,101448.94
2023-01-03T01:33:12.836Z,101448.94
2023-01-03T01:34:14.374Z,101452.19
2023-01-03T01:35:15.895Z,101454.16
2023-01-03T01:36:19.008Z,101452.19
2023-01-03T01:37:20.509Z,101446.34
2023-01-03T01:38:22.000Z,101454.16
2023-01-03T01:39:24.248Z,101451.94
2023-01-03T01:40:25.764Z,101455.13
2023-01-03T01:41:48.176Z,101452.78
2023-01-03T01:43:08.283Z,101452.34
2023-01-03T01:44:40.780Z,101457.91
2023-01-03T01:45:42.376Z,101451.22
2023-01-03T01:46:43.937Z,101444.66
2023-01-03T01:47:48.246Z,101465.31
2023-01-03T01:48:50.894Z,101459.50
2023-01-03T01:50:11.332Z,101461.69
2023-01-03T01:51:14.213Z,101468.88
2023-01-03T01:52:16.973Z,101467.16
2023-01-03T01:53:19.638Z,101472.75
2023-01-03T01:54:21.185Z,101466.81
2023-01-03T01:55:23.643Z,101474.81
2023-01-03T01:56:35.623Z,101474.22
2023-01-03T01:57:37.202Z,101476.75
2023-01-03T01:58:39.353Z,101478.72
2023-01-03T01:59:40.860Z,101479.81
2023-01-03T02:00:42.510Z,101480.66
2023-01-03T02:01:45.275Z,101477.25
2023-01-03T02:02:47.482Z,101477.00
2023-01-03T02:04:01.374Z,101477.25
2023-01-03T02:05:04.304Z,101474.72
2023-01-03T02:06:06.091Z,101478.59
2023-01-03T02:07:07.616Z,101482.94
2023-01-03T02:08:09.119Z,101486.00
2023-01-03T02:09:10.617Z,101481.25
2023-01-03T02:10:12.080Z,101477.38
2023-01-03T02:11:22.664Z,101488.06
2023-01-03T02:12:48.815Z,101483.94
2023-01-03T02:14:06.027Z,101485.38
2023-01-03T02:15:13.200Z,101477.00
2023-01-03T02:16:23.858Z,101475.06
2023-01-03T02:17:44.328Z,101475.91
2023-01-03T02:18:57.194Z,101469.22
2023-01-03T02:20:10.650Z,101477.59
2023-01-03T02:21:30.739Z,101472.03
2023-01-03T02:22:32.253Z,101470.31
2023-01-03T02:23:33.751Z,101469.63
2023-01-03T02:24:46.439Z,101469.63
2023-01-03T02:25:53.916Z,101468.28
2023-01-03T02:26:58.233Z,101468.03
2023-01-03T02:28:02.789Z,101472.50
2023-01-03T02:29:19.358Z,101474.22
2023-01-03T02:30:34.425Z,101472.75
2023-01-03T02:31:57.314Z,101468.97
2023-01-03T02:33:04.367Z,101471.78
2023-01-03T02:34:08.673Z,101468.38
2023-01-03T02:35:24.379Z,101468.13
2023-01-03T02:36:37.955Z,101473.97
2023-01-03T02:37:44.357Z,101471.06
2023-01-03T02:38:50.456Z,101474.47
2023-01-03T02:40:10.829Z,101470.31
2023-01-03T02:41:16.949Z,101472.03
2023-01-03T02:42:57.148Z,101470.56
2023-01-03T02:43:58.608Z,101463.19
2023-01-03T02:45:06.411Z,101477.16
2023-01-03T02:46:23.226Z,101471.91
2023-01-03T02:47:25.084Z,101467.75
2023-01-03T02:48:45.116Z,101468.38
2023-01-03T02:49:47.777Z,101468.38
2023-01-03T02:50:49.677Z,101467.06
2023-01-03T02:51:53.013Z,101473.13
2023-01-03T02:52:54.852Z,101468.59
2023-01-03T02:53:56.308Z,101475.16
2023-01-03T02:55:11.657Z,101471.47
2023-01-03T02:56:14.440Z,101474.25
2023-01-03T02:57:20.247Z,101469.50
2023-01-03T02:58:22.893Z,101472.00
2023-01-03T02:59:44.668Z,101474.56
2023-01-03T03:00:48.705Z,101471.69
2023-01-03T03:01:51.025Z,101464.41
2023-01-03T03:02:54.970Z,101463.06
2023-01-03T03:03:56.777Z,101471.69
2023-01-03T03:04:58.350Z,101473.59
2023-01-03T03:06:11.552Z,101468.50
2023-01-03T03:07:20.254Z,101467.88
2023-01-03T03:08:21.838Z,101474.56
2023-01-03T03:09:23.813Z,101471.88
2023-01-03T03:11:00.847Z,101473.22
2023-01-03T03:12:20.942Z,101471.97
2023-01-03T03:13:41.136Z,101472.94
2023-01-03T03:14:46.383Z,101469.50
2023-01-03T03:15:49.856Z,101474.59
2023-01-03T03:16:51.894Z,101484.28
2023-01-03T03:17:54.691Z,101482.94
2023-01-03T03:18:58.465Z,101488.63
2023-01-03T03:20:19.010Z,101490.22
2023-01-03T03:21:39.487Z,101495.19
2023-01-03T03:23:00.838Z,101496.59
2023-01-03T03:24:25.014Z,101493.06
2023-01-03T03:25:30.962Z,101501.34
2023-01-03T03:26:33.465Z,101494.22
2023-01-03T03:27:53.798Z,101500.41
2023-01-03T03:28:56.535Z,101498.81
2023-01-03T03:29:58.302Z,101504.66
2023-01-03T03:31:01.796Z,101503.19
2023-01-03T03:32:03.408Z,101500.28
2023-01-03T03:33:06.382Z,101506.47
2023-01-03T03:34:07.927Z,101506.22
2023-01-03T03:35:09.624Z,101508.53
2023-01-03T03:36:16.966Z,101505.25
2023-01-03T03:37:19.000Z,101504.41
2023-01-03T03:38:22.666Z,101500.53
2023-01-03T03:39:42.938Z,101511.22
2023-01-03T03:41:05.631Z,101508.69
2023-01-03T03:42:41.015Z,101509.91
2023-01-03T03:44:03.090Z,101502.09
2023-01-03T03:45:16.496Z,101509.78
2023-01-03T03:46:21.791Z,101511.69
2023-01-03T03:47:24.187Z,101511.69
2023-01-03T03:48:28.649Z,101518.50
2023-01-03T03:49:39.048Z,101514.63
2023-01-03T03:50:40.539Z,101514.16
2023-01-03T03:51:42.251Z,101513.91
2023-01-03T03:52:44.666Z,101515.84
2023-01-03T03:53:46.906Z,101510.28
2023-01-03T03:54:52.844Z,101508.09
2023-01-03T03:55:57.015Z,101506.88
2023-01-03T03:57:00.227Z,101508.19
2023-01-03T03:58:09.239Z,101505.16
2023-01-03T03:59:10.751Z,101508.56
2023-01-03T04:00:13.406Z,101509.41
2023-01-03T04:01:16.150Z,101515.84
2023-01-03T04:02:17.853Z,101512.81
2023-01-03T04:03:19.722Z,101517.56
2023-01-03T04:04:22.749Z,101513.66
2023-01-03T04:05:24.667Z,101517.31
2023-01-03T04:06:27.500Z,101513.78
2023-01-03T04:07:29.018Z,101511.69
2023-01-03T04:08:30.472Z,101514.25
2023-01-03T04:09:32.006Z,101522.47
2023-01-03T04:10:37.722Z,101514.81
2023-01-03T04:11:39.740Z,101524.78
2023-01-03T04:12:41.378Z,101527.31
2023-01-03T04:13:42.891Z,101525.22
2023-01-03T04:14:44.364Z,101525.22
2023-01-03T04:15:45.983Z,101526.91
2023-01-03T04:16:47.526Z,101517.47
2023-01-03T04:17:49.090Z,101523.88
2023-01-03T04:18:50.703Z,101522.31
2023-01-03T04:19:52.256Z,101527.25
2023-01-03T04:20:53.788Z,101523.88
2023-01-03T04:21:55.332Z,101524.72
2023-01-03T04:22:56.914Z,101518.28
2023-01-03T04:23:58.500Z,101521.06
2023-01-03T04:25:00.021Z,101518.97
2023-01-03T04:26:01.514Z,101518.97
2023-01-03T04:27:03.027Z,101520.69
2023-01-03T04:28:04.627Z,101517.66
2023-01-03T04:29:06.162Z,101522.78
2023-01-03T04:30:07.912Z,101523.38
2023-01-03T04:31:09.462Z,101524.00
2023-01-03T04:32:11.239Z,101517.09
2023-01-03T04:33:14.342Z,101525.22
2023-01-03T04:34:15.963Z,101516.59
2023-01-03T04:35:17.475Z,101522.44
2023-01-03T04:36:19.007Z,101521.44
2023-01-03T04:37:20.536Z,101518.91
2023-01-03T04:38:22.096Z,101516.72
2023-01-03T04:39:23.613Z,101516.78
2023-01-03T04:40:25.212Z,101513.88
2023-01-03T04:41:26.797Z,101517.28
2023-01-03T04:42:47.048Z,101514.25
2023-01-03T04:44:04.716Z,101526.00
2023-01-03T04:45:06.859Z,101518.91
2023-01-03T04:46:08.679Z,101526.19
2023-01-03T04:47:10.301Z,101518.41
2023-01-03T04:48:11.765Z,101520.97
2023-01-03T04:49:14.282Z,101517.94
2023-01-03T04:50:15.831Z,101521.34
2023-01-03T04:51:17.739Z,101522.19
2023-01-03T04:52:19.236Z,101527.56
2023-01-03T04:53:20.963Z,101526.47
2023-01-03T04:54:22.467Z,101521.75
2023-01-03T04:55:23.955Z,101520.91
2023-01-03T04:56:29.403Z,101522.19
2023-01-03T04:57:30.940Z,101529.34
2023-01-03T04:58:32.385Z,101516.78
2023-01-03T04:59:33.900Z,101526.72
2023-01-03T05:00:35.425Z,101526.34
2023-01-03T05:01:37.012Z,101526.34
2023-01-03T05:02:38.658Z,101529.75
2023-01-03T05:03:40.730Z,101527.59
2023-01-03T05:04:42.389Z,101527.59
2023-01-03T05:05:43.953Z,101528.53
2023-01-03T05:06:45.502Z,101534.72
2023-01-03T05:07:46.999Z,101538.84
2023-01-03T05:08:48.583Z,101539.28
2023-01-03T05:09:50.084Z,101534.41
2023-01-03T05:10:52.249Z,101534.03
2023-01-03T05:11:53.809Z,101534.91
2023-01-03T05:13:01.413Z,101536.91
2023-01-03T05:14:02.902Z,101541.25
2023-01-03T05:15:04.523Z,101529.31
2023-01-03T05:16:10.199Z,101542.41
2023-01-03T05:17:11.741Z,101539.38
2023-01-03T05:18:13.295Z,101545.13
2023-01-03T05:19:14.841Z,101550.22
2023-01-03T05:20:35.265Z,101538.59
2023-01-03T05:21:55.708Z,101541.63
2023-01-03T05:23:15.972Z,101543.41
2023-01-03T05:24:36.041Z,101547.28
2023-01-03T05:25:52.582Z,101545.19
2023-01-03T05:26:54.188Z,101555.97
2023-01-03T05:27:56.135Z,101549.75
2023-01-03T05:28:57.710Z,101553.16
2023-01-03T05:30:00.050Z,101550.84
2023-01-03T05:31:01.622Z,101549.59
2023-01-03T05:32:03.237Z,101540.59
2023-01-03T05:33:04.796Z,101550.53
2023-01-03T05:34:06.259Z,101553.78
2023-01-03T05:35:07.880Z,101553.16
2023-01-03T05:36:09.574Z,101554.41
2023-01-03T05:37:11.083Z,101551.16
2023-01-03T05:38:12.851Z,101549.59
2023-01-03T05:39:14.644Z,101554.72
2023-01-03T05:40:16.173Z,101552.56
2023-01-03T05:41:40.512Z,101555.72
2023-01-03T05:42:42.029Z,101549.91
2023-01-03T05:43:43.565Z,101551.63
2023-01-03T05:44:45.042Z,101548.81
2023-01-03T05:45:49.076Z,101550.53
2023-01-03T05:46:50.641Z,101554.16
2023-01-03T05:47:52.296Z,101550.28
2023-01-03T05:48:53.787Z,101555.88
2023-01-03T05:49:55.634Z,101554.16
2023-01-03T05:50:57.582Z,101558.88
2023-01-03T05:51:59.038Z,101553.31
2023-01-03T05:53:00.856Z,101548.81
2023-01-03T05:54:02.356Z,101554.63
2023-01-03T05:55:04.042Z,101556.56
2023-01-03T05:56:06.062Z,101560.22
2023-01-03T05:57:07.510Z,101560.22
2023-01-03T05:58:10.257Z,101561.53
2023-01-03T05:59:13.603Z,101568.81
2023-01-03T06:00:15.423Z,101561.53
2023-01-03T06:01:17.011Z,101559.81
2023-01-03T06:02:18.513Z,101558.13
2023-01-03T06:03:20.053Z,101545.28
2023-01-03T06:04:21.640Z,101557.28
2023-01-03T06:05:23.181Z,101556.44
2023-01-03T06:06:24.704Z,101556.44
2023-01-03T06:07:26.196Z,101560.31
2023-01-03T06:08:27.721Z,101559.44
2023-01-03T06:09:36.608Z,101566.31
2023-01-03T06:10:39.259Z,101566.31
2023-01-03T06:11:41.133Z,101559.88
2023-01-03T06:12:42.608Z,101564.84
2023-01-03T06:13:44.175Z,101566.78
2023-01-03T06:14:45.762Z,101565.09
2023-01-03T06:16:07.450Z,101568.34
2023-01-03T06:17:27.444Z,101567.72
2023-01-03T06:18:29.061Z,101569.00
2023-01-03T06:19:30.543Z,101576.75
2023-01-03T06:20:32.329Z,101573.13
2023-01-03T06:21:34.307Z,101575.28
2023-01-03T06:22:36.077Z,101568.47
2023-01-03T06:23:37.542Z,101576.84
2023-01-03T06:24:39.122Z,101579.63
2023-01-03T06:25:40.676Z,101577.44
2023-01-03T06:26:42.159Z,101578.53
2023-01-03T06:27:43.644Z,101575.50
2023-01-03T06:28:45.142Z,101576.38
2023-01-03T06:29:46.673Z,101573.34
2023-01-03T06:30:48.216Z,101579.75
2023-01-03T06:31:49.777Z,101586.19
2023-01-03T06:32:51.257Z,101580.63
2023-01-03T06:33:52.821Z,101575.91
2023-01-03T06:34:54.605Z,101579.75
2023-01-03T06:35:56.083Z,101581.69
2023-01-03T06:36:57.587Z,101581.94
2023-01-03T06:37:59.050Z,101584.72
2023-01-03T06:39:00.670Z,101586.66
2023-01-03T06:40:02.364Z,101585.81
2023-01-03T06:41:04.046Z,101582.41
2023-01-03T06:42:24.369Z,101577.69
2023-01-03T06:43:26.097Z,101576.84
2023-01-03T06:44:27.620Z,101585.19
2023-01-03T06:45:47.822Z,101585.41
2023-01-03T06:47:08.103Z,101585.66
2023-01-03T06:48:28.307Z,101582.63
2023-01-03T06:49:48.436Z,101586.72
2023-01-03T06:51:08.585Z,101580.75
2023-01-03T06:52:32.691Z,101584.22
2023-01-03T06:53:35.109Z,101590.25
2023-01-03T06:54:37.104Z,101587.91
2023-01-03T06:55:38.836Z,101590.06
2023-01-03T06:56:40.361Z,101583.25
2023-01-03T06:57:41.856Z,101587.75
2023-01-03T06:58:43.333Z,101587.75
2023-01-03T06:59:44.841Z,101583.25
2023-01-03T07:00:46.352Z,101578.94
2023-01-03T07:01:48.192Z,101582.56
2023-01-03T07:02:49.888Z,101585.13
2023-01-03T07:03:51.687Z,101579.56
2023-01-03T07:04:53.318Z,101583.41
2023-01-03T07:05:54.869Z,101577.63
2023-01-03T07:06:56.389Z,101584.03
2023-01-03T07:07:57.872Z,101581.50
2023-01-03T07:08:59.378Z,101583.25
2023-01-03T07:10:00.856Z,101588.59
2023-01-03T07:11:02.325Z,101581.09
2023-01-03T07:12:23.877Z,101580.03
2023-01-03T07:13:43.730Z,101582.34
2023-01-03T07:14:45.343Z,101583.41
2023-01-03T07:15:47.098Z,101589.00
2023-01-03T07:16:48.753Z,101586.22
2023-01-03T07:17:50.331Z,101589.84
2023-01-03T07:18:55.322Z,101589.41
2023-01-03T07:19:57.265Z,101588.38
2023-01-03T07:20:58.784Z,101588.16
2023-01-03T07:22:00.283Z,101582.34
2023-01-03T07:23:01.824Z,101588.56
2023-01-03T07:24:03.901Z,101589.19
2023-01-03T07:25:05.646Z,101586.41
2023-01-03T07:26:07.129Z,101583.38
2023-01-03T07:27:08.620Z,101591.97
2023-01-03T07:28:11.198Z,101588.75
2023-01-03T07:29:12.911Z,101591.16
2023-01-03T07:30:14.558Z,101596.38
2023-01-03T07:31:16.134Z,101602.44
2023-01-03T07:32:17.648Z,101602.84
2023-01-03T07:33:19.335Z,101605.44
2023-01-03T07:34:20.884Z,101608.38
2023-01-03T07:35:22.355Z,101611.78
2023-01-03T07:36:23.899Z,101607.94
2023-01-03T07:37:25.366Z,101618.22
2023-01-03T07:38:26.898Z,101615.44
2023-01-03T07:39:28.447Z,101615.22
2023-01-03T07:40:29.961Z,101621.63
2023-01-03T07:41:51.830Z,101614.38
2023-01-03T07:43:12.262Z,101621.63
2023-01-03T07:44:13.763Z,101621.63
2023-01-03T07:45:15.277Z,101624.66
2023-01-03T07:46:17.645Z,101630.41
2023-01-03T07:47:19.198Z,101626.78
2023-01-03T07:48:20.681Z,101628.72
2023-01-03T07:49:22.203Z,101626.78
2023-01-03T07:50:23.683Z,101631.50
2023-01-03T07:51:25.173Z,101639.84
2023-01-03T07:52:27.734Z,101640.50
2023-01-03T07:53:29.252Z,101639.63
2023-01-03T07:54:30.786Z,101645.66
2023-01-03T07:55:35.229Z,101654.63
2023-01-03T07:56:37.006Z,101649.91
2023-01-03T07:57:38.675Z,101647.78
2023-01-03T07:58:40.757Z,101651.66
2023-01-03T07:59:42.280Z,101651.44
2023-01-03T08:00:43.876Z,101655.06
2023-01-03T08:01:45.431Z,101655.69
2023-01-03T08:02:47.244Z,101652.91
2023-01-03T08:03:48.998Z,101651.59
2023-01-03T08:04:50.720Z,101654.13
2023-01-03T08:05:52.247Z,101655.00
2023-01-03T08:06:53.802Z,101656.53
2023-01-03T08:07:55.289Z,101662.72
2023-01-03T08:09:15.562Z,101651.34
2023-01-03T08:10:35.818Z,101653.97
2023-01-03T08:11:55.952Z,101661.03
2023-01-03T08:13:16.377Z,101663.56
2023-01-03T08:14:21.937Z,101660.09
2023-01-03T08:15:27.036Z,101664.41
2023-01-03T08:16:28.704Z,101659.44
2023-01-03T08:17:30.287Z,101665.63
2023-01-03T08:18:31.744Z,101661.31
2023-01-03T08:19:33.259Z,101658.28
2023-01-03T08:20:34.748Z,101665.38
2023-01-03T08:21:36.223Z,101664.28
2023-01-03T08:22:37.717Z,101662.13
2023-01-03T08:23:39.566Z,101667.22
2023-01-03T08:24:41.078Z,101667.22
2023-01-03T08:25:42.694Z,101677.91
2023-01-03T08:26:44.309Z,101662.91
2023-01-03T08:27:50.158Z,101674.06
2023-01-03T08:28:52.022Z,101670.41
2023-01-03T08:29:53.498Z,101677.50
2023-01-03T08:30:55.038Z,101682.22
2023-01-03T08:31:57.064Z,101676.84
2023-01-03T08:32:59.423Z,101678.38
2023-01-03T08:34:01.890Z,101675.97
2023-01-03T08:35:03.458Z,101675.97
2023-01-03T08:36:05.916Z,101690.34
2023-01-03T08:37:10.324Z,101671.44
2023-01-03T08:38:13.039Z,101672.69
2023-01-03T08:39:15.808Z,101674.16
2023-01-03T08:40:17.333Z,101675.66
2023-01-03T08:41:19.412Z,101668.78
2023-01-03T08:42:23.269Z,101682.47
2023-01-03T08:43:24.781Z,101680.31
2023-01-03T08:44:26.324Z,101684.56
2023-01-03T08:45:27.991Z,101679.63
2023-01-03T08:46:29.895Z,101680.25
2023-01-03T08:47:31.548Z,101676.38
2023-01-03T08:48:33.672Z,101683.66
2023-01-03T08:49:35.210Z,101678.31
2023-01-03T08:50:36.755Z,101679.63
2023-01-03T08:51:38.315Z,101680.69
2023-01-03T08:52:39.802Z,101678.13
2023-01-03T08:53:41.310Z,101689.28
2023-01-03T08:54:44.034Z,101687.13
2023-01-03T08:55:45.548Z,101687.97
2023-01-03T08:56:47.072Z,101695.72
2023-01-03T08:57:48.637Z,101685.41
2023-01-03T08:58:50.128Z,101698.28
2023-01-03T08:59:51.651Z,101695.94
2023-01-03T09:00:53.160Z,101695.34
2023-01-03T09:01:57.776Z,101699.44
2023-01-03T09:03:02.205Z,101713.38
2023-01-03T09:04:05.520Z,101702.00
2023-01-03T09:05:07.656Z,101706.94
2023-01-03T09:06:09.177Z,101706.47
2023-01-03T09:07:10.704Z,101710.34
2023-01-03T09:08:12.176Z,101712.94
2023-01-03T09:09:13.692Z,101711.09
2023-01-03T09:10:15.349Z,101707.84
2023-01-03T09:11:16.912Z,101707.22
2023-01-03T09:12:18.376Z,101713.88
2023-01-03T09:13:19.892Z,101705.97
2023-01-03T09:14:21.393Z,101707.44
2023-01-03T09:15:22.918Z,101712.94
2023-01-03T09:16:24.520Z,101709.97
2023-01-03T09:17:26.146Z,101712.94
2023-01-03T09:18:27.743Z,101709.53
2023-01-03T09:19:29.242Z,101709.53
2023-01-03T09:20:30.828Z,101715.13
2023-01-03T09:21:32.345Z,101716.41
2023-01-03T09:22:33.816Z,101715.94
2023-01-03T09:23:35.554Z,101714.63
2023-01-03T09:24:37.054Z,101703.84
2023-01-03T09:25:38.676Z,101704.69
2023-01-03T09:26:40.236Z,101703.00
2023-01-03T09:27:47.766Z,101700.44
2023-01-03T09:28:49.353Z,101709.97
2023-01-03T09:29:50.887Z,101714.22
2023-01-03T09:30:52.701Z,101711.38
2023-01-03T09:31:54.239Z,101717.16
2023-01-03T09:32:55.785Z,101710.50
2023-01-03T09:33:57.273Z,101717.56
2023-01-03T09:34:58.808Z,101720.16
2023-01-03T09:36:00.372Z,101719.06
2023-01-03T09:37:04.243Z,101717.97
2023-01-03T09:38:05.771Z,101721.00
2023-01-03T09:39:07.217Z,101725.72
2023-01-03T09:40:09.040Z,101714.88
2023-01-03T09:41:13.163Z,101710.91
2023-01-03T09:42:36.159Z,101700.28
2023-01-03T09:43:40.992Z,101708.13
2023-01-03T09:44:42.823Z,101702.03
2023-01-03T09:45:45.542Z,101705.28
2023-01-03T09:46:47.097Z,101714.06
2023-01-03T09:47:48.603Z,101710.06
2023-01-03T09:48:50.371Z,101708.25
2023-01-03T09:50:26.783Z,101711.34
2023-01-03T09:51:39.814Z,101715.53
2023-01-03T09:53:00.028Z,101712.34
2023-01-03T09:54:20.417Z,101706.31
2023-01-03T09:55:59.521Z,101709.31
2023-01-03T09:57:24.738Z,101710.41
2023-01-03T09:58:48.499Z,101702.56
2023-01-03T10:00:08.216Z,101706.34
2023-01-03T10:01:37.239Z,101698.03
2023-01-03T10:03:01.892Z,101703.25
2023-01-03T10:04:05.442Z,101705.22
2023-01-03T10:05:09.836Z,101704.44
2023-01-03T10:06:29.716Z,101709.84
2023-01-03T10:07:40.444Z,101695.25
2023-01-03T10:08:52.441Z,101703.13
2023-01-03T10:10:12.329Z,101690.97
2023-01-03T10:11:21.569Z,101690.50
2023-01-03T10:12:23.075Z,101690.28
2023-01-03T10:13:57.218Z,101685.09
2023-01-03T10:15:37.580Z,101685.75
2023-01-03T10:16:40.201Z,101701.31
2023-01-03T10:18:00.328Z,101692.81
2023-01-03T10:19:20.891Z,101697.25
2023-01-03T10:20:33.771Z,101697.50
2023-01-03T10:21:38.350Z,101700.53
2023-01-03T10:22:39.837Z,101698.03
2023-01-03T10:23:41.408Z,101700.97
2023-01-03T10:24:46.320Z,101702.16
2023-01-03T10:25:48.038Z,101697.25
2023-01-03T10:26:53.169Z,101693.59
2023-01-03T10:27:57.241Z,101693.16
2023-01-03T10:28:58.794Z,101697.25
2023-01-03T10:30:01.093Z,101698.63
2023-01-03T10:31:21.142Z,101701.50
2023-01-03T10:32:25.769Z,101695.38
2023-01-03T10:33:33.623Z,101698.63
2023-01-03T10:34:37.200Z,101702.00
2023-01-03T10:35:38.722Z,101705.16
2023-01-03T10:36:40.180Z,101696.91
2023-01-03T10:37:41.788Z,101698.34
2023-01-03T10:38:51.454Z,101700.38
2023-01-03T10:40:01.518Z,101695.97
2023-01-03T10:41:03.235Z,101695.22
2023-01-03T10:42:04.711Z,101696.91
2023-01-03T10:43:09.939Z,101700.31
2023-01-03T10:44:22.027Z,101689.09
2023-01-03T10:45:23.593Z,101699.47
2023-01-03T10:46:28.442Z,101678.53
2023-01-03T10:47:30.048Z,101693.50
2023-01-03T10:48:52.400Z,101697.44
2023-01-03T10:50:00.588Z,101690.88
2023-01-03T10:51:03.827Z,101688.91
2023-01-03T10:52:10.945Z,101699.53
2023-01-03T10:53:12.582Z,101700.31
2023-01-03T10:54:19.705Z,101691.69
2023-01-03T10:55:23.830Z,101701.81
2023-01-03T10:56:25.607Z,101686.34
2023-01-03T10:57:39.495Z,101690.25
2023-01-03T10:58:40.990Z,101692.31
2023-01-03T10:59:42.553Z,101691.84
2023-01-03T11:00:44.227Z,101691.97
2023-01-03T11:02:04.468Z,101682.06
2023-01-03T11:03:09.773Z,101686.84
2023-01-03T11:04:15.386Z,101682.97
2023-01-03T11:05:17.783Z,101682.44
2023-01-03T11:06:19.394Z,101684.13
2023-01-03T11:07:20.925Z,101687.38
2023-01-03T11:08:23.225Z,101679.91
2023-01-03T11:09:24.713Z,101678.88
2023-01-03T11:10:33.289Z,101687.91
2023-01-03T11:11:35.407Z,101681.25
2023-01-03T11:12:40.173Z,101683.06
2023-01-03T11:13:42.014Z,101676.16
2023-01-03T11:14:53.536Z,101679.38
2023-01-03T11:15:55.846Z,101681.69
2023-01-03T11:17:04.273Z,101674.88
2023-01-03T11:18:06.790Z,101669.19
2023-01-03T11:19:15.590Z,101676.34
2023-01-03T11:20:17.537Z,101674.53
2023-01-03T11:21:23.459Z,101673.81
2023-01-03T11:22:33.814Z,101670.38
2023-01-03T11:23:43.385Z,101672.00
2023-01-03T11:24:54.197Z,101661.03
2023-01-03T11:26:01.101Z,101660.78
2023-01-03T11:27:34.676Z,101660.84
2023-01-03T11:28:49.415Z,101661.38
2023-01-03T11:29:56.867Z,101665.03
2023-01-03T11:31:18.692Z,101659.94
2023-01-03T11:32:43.325Z,101660.97
2023-01-03T11:33:51.703Z,101665.94
2023-01-03T11:35:22.955Z,101657.91
2023-01-03T11:36:34.632Z,101661.28
2023-01-03T11:37:41.986Z,101664.34
2023-01-03T11:38:52.601Z,101663.78
2023-01-03T11:39:59.992Z,101661.38
2023-01-03T11:41:20.098Z,101669.19
2023-01-03T11:42:25.816Z,101659.56
2023-01-03T11:43:33.086Z,101666.81
2023-01-03T11:44:50.059Z,101657.28
2023-01-03T11:46:01.394Z,101659.50
2023-01-03T11:47:21.543Z,101659.84
2023-01-03T11:48:28.190Z,101656.09
2023-01-03T11:49:38.634Z,101656.34
2023-01-03T11:50:40.106Z,101654.91
2023-01-03T11:51:41.600Z,101659.41
2023-01-03T11:52:47.388Z,101655.13
2023-01-03T11:53:51.700Z,101653.94
2023-01-03T11:54:59.250Z,101655.88
2023-01-03T11:56:15.978Z,101658.47
2023-01-03T11:57:20.496Z,101655.41
2023-01-03T11:58:27.188Z,101661.00
2023-01-03T11:59:40.871Z,101653.06
2023-01-03T12:00:51.449Z,101649.78
2023-01-03T12:02:12.056Z,101652.34
2023-01-03T12:03:25.733Z,101653.19
2023-01-03T12:04:28.971Z,101649.44
2023-01-03T12:05:49.175Z,101654.19
2023-01-03T12:07:45.951Z,101651.91
2023-01-03T12:08:35.023Z,101641.28
2023-01-03T12:09:45.540Z,101636.03
2023-01-03T12:10:59.383Z,101643.69
2023-01-03T12:12:00.994Z,101633.66
2023-01-03T12:13:26.938Z,101628.47
2023-01-03T12:14:36.016Z,101631.28
2023-01-03T12:15:42.269Z,101625.66
2023-01-03T12:16:47.592Z,101631.88
2023-01-03T12:17:53.990Z,101628.22
2023-01-03T12:19:00.223Z,101629.69
2023-01-03T12:20:02.785Z,101633.06
2023-01-03T12:21:11.795Z,101631.38
2023-01-03T12:22:16.629Z,101643.19
2023-01-03T12:23:21.011Z,101633.66
2023-01-03T12:24:28.559Z,101641.97
2023-01-03T12:25:36.986Z,101632.28
2023-01-03T12:26:39.152Z,101635.06
2023-01-03T12:27:48.184Z,101632.28